createdAt,value
2023-05-05T00:02:25.681Z,98496.91
2023-05-05T00:04:52.463Z,98499.84
2023-05-05T00:07:18.800Z,98496.38
2023-05-05T00:09:45.118Z,98486.78
2023-05-05T00:12:11.624Z,98491.31
2023-05-05T00:14:37.938Z,98484.38
2023-05-05T00:17:04.354Z,98485.19
2023-05-05T00:19:31.021Z,98489.47
2023-05-05T00:21:57.347Z,98478.81
2023-05-05T00:24:23.657Z,98477.22
2023-05-05T00:26:50.050Z,98470.03
2023-05-05T00:29:16.433Z,98467.84
2023-05-05T00:31:42.832Z,98470.25
2023-05-05T00:34:09.223Z,98468.41
2023-05-05T00:36:35.905Z,98464.94
2023-05-05T00:39:02.223Z,98465.72
2023-05-05T00:41:28.561Z,98461.75
2023-05-05T00:43:55.041Z,98464.66
2023-05-05T00:46:25.294Z,98462.00
2023-05-05T00:48:51.701Z,98457.97
2023-05-05T00:51:18.163Z,98454.25
2023-05-05T00:53:45.131Z,98450.78
2023-05-05T00:56:12.782Z,98455.31
2023-05-05T00:58:42.329Z,98452.91
2023-05-05T01:01:08.892Z,98449.47
2023-05-05T01:03:44.119Z,98443.56
2023-05-05T01:06:15.368Z,98435.34
2023-05-05T01:08:41.606Z,98438.00
2023-05-05T01:11:12.605Z,98428.66
2023-05-05T01:13:48.170Z,98436.38
2023-05-05T01:16:24.803Z,98426.00
2023-05-05T01:18:55.620Z,98423.34
2023-05-05T01:21:27.444Z,98430.25
2023-05-05T01:24:00.499Z,98424.94
2023-05-05T01:26:35.918Z,98418.03
2023-05-05T01:29:09.145Z,98421.47
2023-05-05T01:31:41.591Z,98417.22
2023-05-05T01:34:08.597Z,98413.75
2023-05-05T01:36:36.345Z,98416.41
2023-05-05T01:39:03.016Z,98414.00
2023-05-05T01:41:35.243Z,98410.53
2023-05-05T01:44:01.561Z,98412.41
2023-05-05T01:46:27.892Z,98412.66
2023-05-05T01:48:54.208Z,98409.19
2023-05-05T01:51:20.566Z,98408.41
2023-05-05T01:53:49.840Z,98401.22
2023-05-05T01:56:16.327Z,98402.50
2023-05-05T01:58:42.887Z,98408.63
2023-05-05T02:01:09.226Z,98400.66
2023-05-05T02:03:36.218Z,98389.00
2023-05-05T02:06:02.541Z,98392.03
2023-05-05T02:08:28.863Z,98387.06
2023-05-05T02:10:55.224Z,98391.59
2023-05-05T02:13:21.962Z,98390.81
2023-05-05T02:15:48.419Z,98398.59
2023-05-05T02:18:14.789Z,98390.34
2023-05-05T02:20:41.108Z,98391.94
2023-05-05T02:23:08.014Z,98386.09
2023-05-05T02:25:38.637Z,98385.84
2023-05-05T02:28:05.209Z,98381.56
2023-05-05T02:30:32.271Z,98376.25
2023-05-05T02:33:04.658Z,98378.91
2023-05-05T02:35:40.869Z,98377.31
2023-05-05T02:38:09.664Z,98372.50
2023-05-05T02:40:36.354Z,98368.47
2023-05-05T02:43:03.925Z,98374.63
2023-05-05T02:45:30.447Z,98378.41
2023-05-05T02:47:56.777Z,98380.84
2023-05-05T02:50:23.180Z,98380.41
2023-05-05T02:52:49.556Z,98391.88
2023-05-05T02:55:16.495Z,98387.91
2023-05-05T02:58:01.568Z,98379.63
2023-05-05T03:00:38.480Z,98390.84
2023-05-05T03:03:09.299Z,98379.09
2023-05-05T03:05:38.119Z,98376.69
2023-05-05T03:08:08.784Z,98371.63
2023-05-05T03:10:36.366Z,98362.31
2023-05-05T03:13:02.720Z,98362.31
2023-05-05T03:15:30.632Z,98359.63
2023-05-05T03:17:56.992Z,98361.75
2023-05-05T03:20:23.299Z,98357.22
2023-05-05T03:22:49.628Z,98362.00
2023-05-05T03:25:15.961Z,98363.09
2023-05-05T03:27:42.283Z,98357.47
2023-05-05T03:30:09.067Z,98354.81
2023-05-05T03:32:35.622Z,98355.28
2023-05-05T03:35:02.091Z,98355.28
2023-05-05T03:37:28.413Z,98360.41
2023-05-05T03:39:54.748Z,98358.28
2023-05-05T03:42:21.106Z,98363.31
2023-05-05T03:44:47.419Z,98359.06
2023-05-05T03:47:13.741Z,98365.19
2023-05-05T03:49:40.092Z,98361.19
2023-05-05T03:52:06.522Z,98364.88
2023-05-05T03:54:32.909Z,98358.22
2023-05-05T03:56:59.913Z,98363.56
2023-05-05T03:59:26.225Z,98368.09
2023-05-05T04:01:52.535Z,98362.00
2023-05-05T04:04:18.968Z,98364.97
2023-05-05T04:06:45.489Z,98370.31
2023-05-05T04:09:12.311Z,98371.63
2023-05-05T04:11:38.651Z,98379.63
2023-05-05T04:14:05.232Z,98369.53
2023-05-05T04:16:31.656Z,98373.78
2023-05-05T04:18:58.000Z,98372.72
2023-05-05T04:21:24.303Z,98368.75
2023-05-05T04:23:50.746Z,98368.47
2023-05-05T04:26:17.072Z,98369.78
2023-05-05T04:28:43.422Z,98380.22
2023-05-05T04:31:10.518Z,98373.28
2023-05-05T04:33:36.872Z,98385.78
2023-05-05T04:36:03.195Z,98383.66
2023-05-05T04:38:29.558Z,98386.59
2023-05-05T04:40:55.925Z,98384.97
2023-05-05T04:43:22.257Z,98387.13
2023-05-05T04:45:52.022Z,98384.44
2023-05-05T04:48:20.654Z,98385.22
2023-05-05T04:50:47.062Z,98396.69
2023-05-05T04:53:13.385Z,98391.34
2023-05-05T04:55:39.699Z,98388.16
2023-05-05T04:58:06.010Z,98393.50
2023-05-05T05:00:32.495Z,98393.50
2023-05-05T05:02:58.878Z,98389.47
2023-05-05T05:05:25.289Z,98391.88
2023-05-05T05:07:51.619Z,98387.34
2023-05-05T05:10:18.169Z,98388.16
2023-05-05T05:12:44.534Z,98390.06
2023-05-05T05:15:11.081Z,98378.31
2023-05-05T05:17:37.421Z,98385.78
2023-05-05T05:20:04.963Z,98374.88
2023-05-05T05:22:31.675Z,98382.34
2023-05-05T05:24:57.990Z,98386.06
2023-05-05T05:27:24.696Z,98389.03
2023-05-05T05:29:51.310Z,98380.22
2023-05-05T05:32:17.755Z,98384.78
2023-05-05T05:34:44.184Z,98386.38
2023-05-05T05:37:10.492Z,98389.84
2023-05-05T05:39:36.818Z,98389.84
2023-05-05T05:42:03.532Z,98387.97
2023-05-05T05:44:29.889Z,98392.78
2023-05-05T05:46:56.280Z,98390.69
2023-05-05T05:49:22.597Z,98393.09
2023-05-05T05:51:48.911Z,98402.69
2023-05-05T05:54:15.276Z,98396.03
2023-05-05T05:56:41.602Z,98397.34
2023-05-05T05:59:09.996Z,98396.28
2023-05-05T06:01:36.800Z,98402.97
2023-05-05T06:04:03.203Z,98397.91
2023-05-05T06:06:29.628Z,98396.84
2023-05-05T06:08:55.938Z,98397.91
2023-05-05T06:11:22.474Z,98402.69
2023-05-05T06:13:48.802Z,98403.75
2023-05-05T06:16:15.235Z,98404.56
2023-05-05T06:18:41.581Z,98413.63
2023-05-05T06:21:07.891Z,98415.22
2023-05-05T06:23:34.209Z,98416.81
2023-05-05T06:26:00.564Z,98409.09
2023-05-05T06:28:26.915Z,98412.56
2023-05-05T06:30:53.236Z,98412.03
2023-05-05T06:33:19.566Z,98414.16
2023-05-05T06:35:47.082Z,98409.63
2023-05-05T06:38:13.411Z,98405.91
2023-05-05T06:40:39.783Z,98406.44
2023-05-05T06:43:06.123Z,98390.69
2023-05-05T06:45:32.553Z,98394.16
2023-05-05T06:47:58.997Z,98383.50
2023-05-05T06:50:25.343Z,98380.28
2023-05-05T06:52:53.087Z,98372.03
2023-05-05T06:55:19.569Z,98382.97
2023-05-05T06:57:45.904Z,98376.63
2023-05-05T07:00:13.868Z,98376.88
2023-05-05T07:02:40.486Z,98389.44
2023-05-05T07:05:06.934Z,98401.41
2023-05-05T07:07:33.259Z,98408.38
2023-05-05T07:09:59.580Z,98419.84
2023-05-05T07:12:26.105Z,98419.31
2023-05-05T07:14:52.445Z,98408.63
2023-05-05T07:17:18.759Z,98402.78
2023-05-05T07:19:45.083Z,98413.16
2023-05-05T07:22:11.445Z,98418.22
2023-05-05T07:24:37.777Z,98411.28
2023-05-05T07:27:04.131Z,98416.63
2023-05-05T07:29:30.658Z,98438.75
2023-05-05T07:31:57.007Z,98433.91
2023-05-05T07:34:23.346Z,98437.38
2023-05-05T07:36:49.668Z,98441.09
2023-05-05T07:39:16.023Z,98446.84
2023-05-05T07:41:42.584Z,98446.09
2023-05-05T07:44:08.891Z,98451.72
2023-05-05T07:46:35.248Z,98458.63
2023-05-05T07:49:01.662Z,98418.16
2023-05-05T07:51:27.953Z,98433.41
2023-05-05T07:53:54.964Z,98465.38
2023-05-05T07:56:21.922Z,98467.25
2023-05-05T07:58:48.250Z,98484.03
2023-05-05T08:01:14.576Z,98470.47
2023-05-05T08:03:41.327Z,98482.88
2023-05-05T08:06:11.330Z,98485.25
2023-05-05T08:08:37.742Z,98476.03
2023-05-05T08:11:04.054Z,98472.03
2023-05-05T08:13:30.396Z,98472.28
2023-05-05T08:15:56.900Z,98464.31
2023-05-05T08:18:24.386Z,98465.66
2023-05-05T08:20:50.670Z,98455.81
2023-05-05T08:23:17.231Z,98460.66
2023-05-05T08:25:43.526Z,98465.19
2023-05-05T08:28:09.896Z,98460.13
2023-05-05T08:30:36.535Z,98459.06
2023-05-05T08:33:02.833Z,98465.19
2023-05-05T08:35:29.142Z,98464.41
2023-05-05T08:37:58.121Z,98472.91
2023-05-05T08:40:27.032Z,98464.38
2023-05-05T08:42:53.349Z,98471.84
2023-05-05T08:45:19.704Z,98477.44
2023-05-05T08:47:46.173Z,98470.25
2023-05-05T08:50:12.591Z,98480.91
2023-05-05T08:52:40.380Z,98475.84
2023-05-05T08:55:33.392Z,98467.03
2023-05-05T08:58:08.396Z,98479.59
2023-05-05T09:00:34.728Z,98483.06
2023-05-05T09:03:01.381Z,98485.72
2023-05-05T09:05:27.900Z,98479.59
2023-05-05T09:07:54.304Z,98478.78
2023-05-05T09:10:20.914Z,98473.72
2023-05-05T09:12:47.472Z,98480.13
2023-05-05T09:15:14.083Z,98481.97
2023-05-05T09:17:40.557Z,98487.31
2023-05-05T09:20:07.398Z,98490.78
2023-05-05T09:22:37.361Z,98490.78
2023-05-05T09:25:04.254Z,98480.91
2023-05-05T09:27:30.601Z,98488.69
2023-05-05T09:29:57.350Z,98491.59
2023-05-05T09:32:23.714Z,98488.44
2023-05-05T09:34:59.617Z,98495.91
2023-05-05T09:37:29.419Z,98492.97
2023-05-05T09:39:55.834Z,98499.13
2023-05-05T09:42:22.286Z,98494.06
2023-05-05T09:44:48.838Z,98500.50
2023-05-05T09:47:28.509Z,98494.38
2023-05-05T09:49:59.014Z,98491.47
2023-05-05T09:52:25.652Z,98493.63
2023-05-05T09:54:56.137Z,98493.06
2023-05-05T09:57:26.105Z,98486.69
2023-05-05T09:59:57.240Z,98493.63
2023-05-05T10:02:29.778Z,98487.75
2023-05-05T10:05:09.412Z,98496.31
2023-05-05T10:07:36.822Z,98489.13
2023-05-05T10:10:07.090Z,98491.59
2023-05-05T10:12:37.020Z,98485.47
2023-05-05T10:15:03.946Z,98482.53
2023-05-05T10:17:31.316Z,98485.47
2023-05-05T10:19:57.951Z,98492.41
2023-05-05T10:22:24.284Z,98495.59
2023-05-05T10:24:51.151Z,98496.41
2023-05-05T10:27:19.159Z,98492.94
2023-05-05T10:29:48.357Z,98490.28
2023-05-05T10:32:53.197Z,98497.47
2023-05-05T10:35:22.100Z,98488.41
2023-05-05T10:37:48.523Z,98489.22
2023-05-05T10:40:14.983Z,98488.16
2023-05-05T10:42:41.337Z,98490.81
2023-05-05T10:45:07.936Z,98490.28
2023-05-05T10:47:34.793Z,98485.22
2023-05-05T10:50:04.243Z,98487.38
2023-05-05T10:52:35.412Z,98486.03
2023-05-05T10:55:09.511Z,98484.44
2023-05-05T10:57:37.025Z,98486.84
2023-05-05T11:00:04.324Z,98479.09
2023-05-05T11:02:31.569Z,98474.31
2023-05-05T11:05:16.653Z,98481.75
2023-05-05T11:07:46.319Z,98476.19
2023-05-05T11:10:13.224Z,98471.63
2023-05-05T11:13:03.614Z,98464.16
2023-05-05T11:15:30.245Z,98459.09
2023-05-05T11:17:57.420Z,98455.06
2023-05-05T11:20:36.800Z,98460.41
2023-05-05T11:23:03.269Z,98463.63
2023-05-05T11:25:36.279Z,98460.69
2023-05-05T11:28:09.416Z,98455.56
2023-05-05T11:30:36.096Z,98457.16
2023-05-05T11:33:21.248Z,98458.25
2023-05-05T11:36:14.005Z,98461.47
2023-05-05T11:38:58.988Z,98455.84
2023-05-05T11:41:31.170Z,98456.91
2023-05-05T11:44:09.649Z,98454.50
2023-05-05T11:46:36.177Z,98459.84
2023-05-05T11:49:02.610Z,98452.66
2023-05-05T11:51:28.928Z,98457.97
2023-05-05T11:53:56.017Z,98464.38
2023-05-05T11:56:23.777Z,98463.59
2023-05-05T11:59:08.201Z,98456.66
2023-05-05T12:01:34.918Z,98455.91
2023-05-05T12:04:01.470Z,98449.19
2023-05-05T12:06:29.800Z,98440.66
2023-05-05T12:08:56.178Z,98435.84
2023-05-05T12:11:23.172Z,98442.25
2023-05-05T12:13:49.505Z,98436.94
2023-05-05T12:16:15.960Z,98440.38
2023-05-05T12:18:42.381Z,98438.00
2023-05-05T12:21:14.853Z,98434.78
2023-05-05T12:23:41.195Z,98433.47
2023-05-05T12:26:08.023Z,98435.34
2023-05-05T12:28:44.569Z,98425.44
2023-05-05T12:31:11.610Z,98426.25
2023-05-05T12:33:41.100Z,98420.13
2023-05-05T12:36:07.750Z,98417.16
2023-05-05T12:38:34.825Z,98410.75
2023-05-05T12:41:01.179Z,98405.41
2023-05-05T12:43:28.342Z,98407.84
2023-05-05T12:46:07.634Z,98403.81
2023-05-05T12:48:34.531Z,98411.56
2023-05-05T12:51:11.037Z,98396.59
2023-05-05T12:53:37.395Z,98404.09
2023-05-05T12:56:03.763Z,98401.41
2023-05-05T12:58:46.270Z,98395.28
2023-05-05T13:01:12.668Z,98394.22
2023-05-05T13:03:39.001Z,98389.94
2023-05-05T13:06:21.137Z,98389.94
2023-05-05T13:08:48.065Z,98386.72
2023-05-05T13:11:14.392Z,98372.56
2023-05-05T13:13:42.098Z,98362.97
2023-05-05T13:16:08.481Z,98365.38
2023-05-05T13:18:47.414Z,98370.97
2023-05-05T13:21:13.836Z,98371.78
2023-05-05T13:23:44.138Z,98370.19
2023-05-05T13:26:10.801Z,98362.97
2023-05-05T13:28:37.176Z,98369.38
2023-05-05T13:31:03.551Z,98360.59
2023-05-05T13:33:29.937Z,98366.16
2023-05-05T13:35:56.259Z,98363.78
2023-05-05T13:38:22.659Z,98371.78
2023-05-05T13:40:48.972Z,98366.72
2023-05-05T13:43:15.332Z,98376.06
2023-05-05T13:45:42.114Z,98378.22
2023-05-05T13:50:34.785Z,98361.94
2023-05-05T13:53:01.171Z,98387.03
2023-05-05T13:55:30.527Z,98392.09
2023-05-05T13:57:56.861Z,98372.34
2023-05-05T14:00:23.234Z,98382.22
2023-05-05T14:02:49.607Z,98376.88
2023-05-05T14:05:16.268Z,98385.97
2023-05-05T14:07:42.966Z,98370.47
2023-05-05T14:10:09.651Z,98359.28
2023-05-05T14:12:35.969Z,98372.88
2023-05-05T14:15:02.629Z,98374.75
2023-05-05T14:17:28.990Z,98368.59
2023-05-05T14:19:55.667Z,98365.13
2023-05-05T14:22:21.955Z,98376.88
2023-05-05T14:24:48.253Z,98371.78
2023-05-05T14:27:14.529Z,98381.94
2023-05-05T14:29:40.849Z,98376.09
2023-05-05T14:32:07.206Z,98377.69
2023-05-05T14:34:33.547Z,98380.34
2023-05-05T14:36:59.862Z,98374.75
2023-05-05T14:39:26.166Z,98363.56
2023-05-05T14:41:52.452Z,98361.91
2023-05-05T14:44:18.749Z,98355.00
2023-05-05T14:46:46.348Z,98363.25
2023-05-05T14:49:13.125Z,98355.25
2023-05-05T14:51:39.404Z,98373.34
2023-05-05T14:54:09.484Z,98384.81
2023-05-05T14:56:43.656Z,98396.31
2023-05-05T14:59:09.960Z,98402.69
2023-05-05T15:01:37.185Z,98413.63
2023-05-05T15:04:03.610Z,98426.19
2023-05-05T15:06:29.943Z,98436.06
2023-05-05T15:08:57.019Z,98445.13
2023-05-05T15:11:23.315Z,98449.91
2023-05-05T15:13:49.594Z,98463.22
2023-05-05T15:16:15.935Z,98478.94
2023-05-05T15:18:42.219Z,98479.22
2023-05-05T15:21:08.540Z,98484.84
2023-05-05T15:23:34.855Z,98485.91
2023-05-05T15:26:01.280Z,98483.22
2023-05-05T15:28:27.557Z,98479.72
2023-05-05T15:30:54.010Z,98477.06
2023-05-05T15:33:20.294Z,98475.22
2023-05-05T15:35:46.614Z,98467.22
2023-05-05T15:38:12.891Z,98465.59
2023-05-05T15:40:39.218Z,98451.75
2023-05-05T15:43:05.550Z,98467.75
2023-05-05T15:45:31.881Z,98465.09
2023-05-05T15:47:58.266Z,98440.56
2023-05-05T15:50:24.582Z,98455.50
2023-05-05T15:52:51.081Z,98450.41
2023-05-05T15:55:17.547Z,98448.56
2023-05-05T15:57:44.197Z,98453.91
2023-05-05T16:00:10.698Z,98459.22
2023-05-05T16:02:37.094Z,98461.06
2023-05-05T16:05:03.497Z,98454.13
2023-05-05T16:07:29.825Z,98453.63
2023-05-05T16:09:56.848Z,98450.94
2023-05-05T16:12:23.256Z,98447.47
2023-05-05T16:14:49.568Z,98452.03
2023-05-05T16:17:15.892Z,98449.59
2023-05-05T16:19:42.213Z,98452.25
2023-05-05T16:22:08.534Z,98447.72
2023-05-05T16:24:34.842Z,98437.34
2023-05-05T16:27:01.166Z,98425.06
2023-05-05T16:29:27.541Z,98428.81
2023-05-05T16:31:53.883Z,98424.28
2023-05-05T16:34:20.282Z,98418.13
2023-05-05T16:36:46.622Z,98417.59
2023-05-05T16:39:13.633Z,98414.13
2023-05-05T16:41:40.283Z,98418.38
2023-05-05T16:44:06.860Z,98424.78
2023-05-05T16:46:37.130Z,98429.03
2023-05-05T16:49:03.780Z,98425.84
2023-05-05T16:51:30.158Z,98424.00
2023-05-05T16:53:56.488Z,98421.59
2023-05-05T16:56:22.824Z,98416.25
2023-05-05T16:58:49.151Z,98418.94
2023-05-05T17:01:15.533Z,98431.19
2023-05-05T17:03:41.908Z,98419.72
2023-05-05T17:06:08.466Z,98418.94
2023-05-05T17:08:34.828Z,98415.72
2023-05-05T17:11:01.143Z,98419.72
2023-05-05T17:13:27.461Z,98411.44
2023-05-05T17:15:53.831Z,98413.31
2023-05-05T17:18:22.580Z,98410.66
2023-05-05T17:20:49.029Z,98408.00
2023-05-05T17:23:16.574Z,98413.31
2023-05-05T17:25:42.996Z,98412.53
2023-05-05T17:28:09.315Z,98408.25
2023-05-05T17:30:37.479Z,98411.97
2023-05-05T17:33:03.837Z,98415.44
2023-05-05T17:35:30.202Z,98406.91
2023-05-05T17:37:56.680Z,98405.84
2023-05-05T17:40:23.063Z,98408.50
2023-05-05T17:42:49.388Z,98409.31
2023-05-05T17:45:15.970Z,98401.56
2023-05-05T17:47:42.316Z,98403.44
2023-05-05T17:50:11.337Z,98406.09
2023-05-05T17:52:38.193Z,98407.97
2023-05-05T17:55:04.683Z,98398.13
2023-05-05T17:57:31.163Z,98405.84
2023-05-05T17:59:58.517Z,98408.78
2023-05-05T18:02:25.145Z,98410.38
2023-05-05T18:04:53.090Z,98414.91
2023-05-05T18:07:19.398Z,98420.50
2023-05-05T18:09:47.188Z,98420.25
2023-05-05T18:12:15.582Z,98417.84
2023-05-05T18:14:42.120Z,98417.03
2023-05-05T18:17:09.285Z,98420.75
2023-05-05T18:19:35.609Z,98418.09
2023-05-05T18:22:01.948Z,98420.75
2023-05-05T18:24:28.612Z,98419.16
2023-05-05T18:26:54.963Z,98422.38
2023-05-05T18:29:23.975Z,98418.91
2023-05-05T18:31:53.673Z,98425.56
2023-05-05T18:34:21.568Z,98430.91
2023-05-05T18:36:47.939Z,98434.94
2023-05-05T18:39:14.464Z,98425.56
2023-05-05T18:41:41.047Z,98432.78
2023-05-05T18:44:07.418Z,98434.66
2023-05-05T18:46:33.816Z,98437.31
2023-05-05T18:49:00.899Z,98451.19
2023-05-05T18:51:27.844Z,98449.06
2023-05-05T18:53:54.572Z,98457.31
2023-05-05T18:56:21.548Z,98453.31
2023-05-05T18:58:48.194Z,98455.19
2023-05-05T19:01:14.635Z,98469.03
2023-05-05T19:03:42.364Z,98459.69
2023-05-05T19:06:08.941Z,98468.75
2023-05-05T19:08:35.324Z,98469.81
2023-05-05T19:11:01.683Z,98471.69
2023-05-05T19:13:28.033Z,98473.53
2023-05-05T19:15:57.393Z,98481.53
2023-05-05T19:18:24.278Z,98477.78
2023-05-05T19:20:50.926Z,98478.06
2023-05-05T19:23:17.726Z,98474.06
2023-05-05T19:25:44.078Z,98476.19
2023-05-05T19:28:12.000Z,98480.72
2023-05-05T19:30:38.318Z,98476.19
2023-05-05T19:33:04.794Z,98482.31
2023-05-05T19:35:31.303Z,98475.38
2023-05-05T19:37:57.669Z,98471.94
2023-05-05T19:40:24.060Z,98471.94
2023-05-05T19:42:51.399Z,98477.25
2023-05-05T19:45:17.788Z,98476.19
2023-05-05T19:47:44.639Z,98474.31
2023-05-05T19:50:11.643Z,98463.38
2023-05-05T19:52:38.411Z,98469.53
2023-05-05T19:55:06.008Z,98470.34
2023-05-05T19:57:32.339Z,98468.22
2023-05-05T19:59:58.680Z,98472.47
2023-05-05T20:02:27.325Z,98467.69
2023-05-05T20:04:54.080Z,98470.88
2023-05-05T20:07:20.837Z,98460.72
2023-05-05T20:09:48.562Z,98453.78
2023-05-05T20:12:16.835Z,98453.78
2023-05-05T20:14:44.207Z,98444.19
2023-05-05T20:17:11.808Z,98441.53
2023-05-05T20:19:38.585Z,98439.94
2023-05-05T20:22:04.910Z,98426.84
2023-05-05T20:24:32.142Z,98432.97
2023-05-05T20:26:58.797Z,98422.31
2023-05-05T20:29:25.358Z,98418.06
2023-05-05T20:31:51.726Z,98416.47
2023-05-05T20:34:18.149Z,98413.78
2023-05-05T20:36:47.705Z,98398.31
2023-05-05T20:39:14.511Z,98408.72
2023-05-05T20:41:41.631Z,98409.78
2023-05-05T20:44:10.113Z,98412.19
2023-05-05T20:46:36.687Z,98408.19
2023-05-05T20:49:03.391Z,98407.94
2023-05-05T20:51:31.999Z,98415.09
2023-05-05T20:53:58.377Z,98414.31
2023-05-05T20:56:24.688Z,98416.97
2023-05-05T20:58:51.008Z,98426.59
2023-05-05T21:01:17.437Z,98408.19
2023-05-05T21:03:43.870Z,98418.03
2023-05-05T21:06:10.197Z,98426.84
2023-05-05T21:08:36.741Z,98423.38
2023-05-05T21:11:03.054Z,98407.94
2023-05-05T21:13:29.446Z,98399.94
2023-05-05T21:15:55.861Z,98391.09
2023-05-05T21:18:22.290Z,98396.44
2023-05-05T21:20:49.608Z,98398.31
2023-05-05T21:23:16.013Z,98410.59
2023-05-05T21:25:42.549Z,98411.63
2023-05-05T21:28:08.894Z,98411.63
2023-05-05T21:30:35.507Z,98413.75
2023-05-05T21:33:01.879Z,98419.06
2023-05-05T21:35:28.216Z,98423.34
2023-05-05T21:37:56.290Z,98417.22
2023-05-05T21:40:22.920Z,98415.34
2023-05-05T21:42:49.229Z,98413.75
2023-05-05T21:45:16.000Z,98424.41
2023-05-05T21:47:42.428Z,98427.06
2023-05-05T21:50:10.084Z,98431.59
2023-05-05T21:52:37.697Z,98433.47
2023-05-05T21:55:04.180Z,98433.72
2023-05-05T21:57:30.499Z,98432.91
2023-05-05T21:59:56.815Z,98423.03
2023-05-05T22:02:25.289Z,98423.59
2023-05-05T22:04:53.737Z,98421.72
2023-05-05T22:07:20.083Z,98432.63
2023-05-05T22:09:46.480Z,98435.84
2023-05-05T22:12:13.060Z,98435.31
2023-05-05T22:14:40.204Z,98437.44
2023-05-05T22:17:06.648Z,98428.66
2023-05-05T22:19:33.335Z,98421.44
2023-05-05T22:21:59.745Z,98433.97
2023-05-05T22:24:26.565Z,98421.72
2023-05-05T22:26:55.564Z,98428.66
2023-05-05T22:29:25.511Z,98424.38
2023-05-05T22:31:51.890Z,98423.81
2023-05-05T22:34:19.720Z,98434.25
2023-05-05T22:36:48.428Z,98428.09
2023-05-05T22:39:14.741Z,98425.41
2023-05-05T22:41:41.103Z,98427.28
2023-05-05T22:44:07.671Z,98432.88
2023-05-05T22:46:34.020Z,98436.34
2023-05-05T22:49:01.702Z,98429.16
2023-05-05T22:51:28.058Z,98431.81
2023-05-05T22:53:54.382Z,98435.28
2023-05-05T22:56:20.876Z,98435.56
2023-05-05T22:58:47.522Z,98433.69
2023-05-05T23:01:14.073Z,98436.34
2023-05-05T23:03:41.455Z,98437.16
2023-05-05T23:06:07.806Z,98436.34
2023-05-05T23:08:34.127Z,98440.63
2023-05-05T23:11:00.806Z,98441.41
2023-05-05T23:13:28.164Z,98444.06
2023-05-05T23:15:54.519Z,98441.41
2023-05-05T23:18:20.839Z,98435.28
2023-05-05T23:20:47.170Z,98436.09
2023-05-05T23:23:13.497Z,98436.09
2023-05-05T23:25:40.162Z,98432.91
2023-05-05T23:28:06.524Z,98423.59
2023-05-05T23:30:33.181Z,98429.44
2023-05-05T23:33:00.840Z,98432.34
2023-05-05T23:35:28.333Z,98440.59
2023-05-05T23:37:55.695Z,98443.25
2023-05-05T23:40:22.244Z,98444.31
2023-05-05T23:42:48.587Z,98442.72
2023-05-05T23:45:15.982Z,98449.66
2023-05-05T23:47:43.396Z,98450.72
2023-05-05T23:50:09.776Z,98449.13
2023-05-05T23:52:37.286Z,98450.13
2023-05-05T23:55:03.636Z,98450.13
2023-05-05T23:57:30.098Z,98445.06
2023-05-05T23:59:58.213Z,98441.59
